createdAt,value
2023-01-13T00:00:16.396Z,1.63
2023-01-13T00:02:43.169Z,1.61
2023-01-13T00:05:10.379Z,1.59
2023-01-13T00:07:40.215Z,1.56
2023-01-13T00:10:11.219Z,1.54
2023-01-13T00:12:41.814Z,1.54
2023-01-13T00:15:09.367Z,1.54
2023-01-13T00:17:36.577Z,1.54
2023-01-13T00:20:03.446Z,1.54
2023-01-13T00:22:32.565Z,1.53
2023-01-13T00:25:01.588Z,1.53
2023-01-13T00:27:28.965Z,1.52
2023-01-13T00:29:55.657Z,1.50
2023-01-13T00:32:22.929Z,1.47
2023-01-13T00:34:49.661Z,1.46
2023-01-13T00:37:16.407Z,1.42
2023-01-13T00:39:43.136Z,1.39
2023-01-13T00:42:28.400Z,1.39
2023-01-13T00:44:55.129Z,1.38
2023-01-13T00:47:21.937Z,1.38
2023-01-13T00:49:48.825Z,1.39
2023-01-13T00:52:15.688Z,1.38
2023-01-13T00:54:42.481Z,1.38
2023-01-13T00:57:09.626Z,1.40
2023-01-13T00:59:36.429Z,1.39
2023-01-13T01:02:03.169Z,1.40
2023-01-13T01:04:29.976Z,1.42
2023-01-13T01:06:56.729Z,1.45
2023-01-13T01:09:23.587Z,1.47
2023-01-13T01:11:50.209Z,1.50
2023-01-13T01:14:17.168Z,1.53
2023-01-13T01:16:43.803Z,1.57
2023-01-13T01:19:10.555Z,1.61
2023-01-13T01:21:37.347Z,1.64
2023-01-13T01:24:04.418Z,1.67
2023-01-13T01:26:31.701Z,1.71
2023-01-13T01:28:58.772Z,1.75
2023-01-13T01:31:26.921Z,1.79
2023-01-13T01:33:54.805Z,1.82
2023-01-13T01:36:22.306Z,1.85
2023-01-13T01:38:49.432Z,1.88
2023-01-13T01:41:17.686Z,1.92
2023-01-13T01:43:59.938Z,1.93
2023-01-13T01:46:31.815Z,1.93
2023-01-13T01:49:02.120Z,1.95
2023-01-13T01:51:32.359Z,1.98
2023-01-13T01:54:00.232Z,2.00
2023-01-13T01:56:27.273Z,2.02
2023-01-13T01:58:54.384Z,2.04
2023-01-13T02:01:21.718Z,2.07
2023-01-13T02:03:56.259Z,2.06
2023-01-13T02:06:23.818Z,2.08
2023-01-13T02:08:52.026Z,2.11
2023-01-13T02:11:53.838Z,2.15
2023-01-13T02:14:22.266Z,2.16
2023-01-13T02:16:55.065Z,2.16
2023-01-13T02:19:32.545Z,2.18
2023-01-13T02:22:08.208Z,2.20
2023-01-13T02:24:56.112Z,2.21
2023-01-13T02:27:42.006Z,2.22
2023-01-13T02:30:27.427Z,2.23
2023-01-13T02:33:03.103Z,2.24
2023-01-13T02:35:36.115Z,2.26
2023-01-13T02:38:03.357Z,2.28
2023-01-13T02:40:34.436Z,2.30
2023-01-13T02:43:26.711Z,2.30
2023-01-13T02:45:59.310Z,2.32
2023-01-13T02:48:28.685Z,2.35
2023-01-13T02:51:05.106Z,2.38
2023-01-13T02:53:38.549Z,2.39
2023-01-13T02:56:06.714Z,2.42
2023-01-13T02:58:35.838Z,2.43
2023-01-13T03:01:02.720Z,2.45
2023-01-13T03:03:31.745Z,2.47
2023-01-13T03:06:18.931Z,2.48
2023-01-13T03:08:49.917Z,2.51
2023-01-13T03:11:18.427Z,2.54
2023-01-13T03:13:51.061Z,2.57
2023-01-13T03:16:36.564Z,2.60
2023-01-13T03:19:13.696Z,2.62
2023-01-13T03:21:56.992Z,2.68
2023-01-13T03:24:40.977Z,2.71
2023-01-13T03:27:15.180Z,2.69
2023-01-13T03:29:56.471Z,2.70
2023-01-13T03:32:32.065Z,2.73
2023-01-13T03:35:09.623Z,2.76
2023-01-13T03:37:39.206Z,2.78
2023-01-13T03:40:11.875Z,2.78
2023-01-13T03:42:41.597Z,2.79
2023-01-13T03:45:11.887Z,2.75
2023-01-13T03:47:41.668Z,2.74
2023-01-13T03:50:20.710Z,2.74
2023-01-13T03:52:52.777Z,2.72
2023-01-13T03:55:22.750Z,2.67
2023-01-13T03:57:54.439Z,2.62
2023-01-13T04:00:23.272Z,2.61
2023-01-13T04:02:57.334Z,2.59
2023-01-13T04:05:25.109Z,2.54
2023-01-13T04:08:21.175Z,2.51
2023-01-13T04:11:10.092Z,2.45
2023-01-13T04:13:39.363Z,2.38
2023-01-13T04:16:11.305Z,2.27
2023-01-13T04:18:39.196Z,2.21
2023-01-13T04:21:06.658Z,2.15
2023-01-13T04:23:33.857Z,2.12
2023-01-13T04:26:00.603Z,2.08
2023-01-13T04:28:27.759Z,2.02
2023-01-13T04:30:54.524Z,1.96
2023-01-13T04:33:21.441Z,1.92
2023-01-13T04:35:48.481Z,1.94
2023-01-13T04:38:16.513Z,1.94
2023-01-13T04:40:43.300Z,1.92
2023-01-13T04:43:10.202Z,1.92
2023-01-13T04:45:37.035Z,1.94
2023-01-13T04:48:03.889Z,1.96
2023-01-13T04:50:30.699Z,1.96
2023-01-13T04:52:57.700Z,1.98
2023-01-13T04:55:25.005Z,1.99
2023-01-13T04:57:52.353Z,1.99
2023-01-13T05:00:20.315Z,2.00
2023-01-13T05:02:48.994Z,2.02
2023-01-13T05:05:15.739Z,2.05
2023-01-13T05:07:42.497Z,2.10
2023-01-13T05:10:09.564Z,2.13
2023-01-13T05:12:54.758Z,2.13
2023-01-13T05:15:39.978Z,2.12
2023-01-13T05:18:07.033Z,2.16
2023-01-13T05:20:33.663Z,2.19
2023-01-13T05:23:19.008Z,2.22
2023-01-13T05:25:47.179Z,2.23
2023-01-13T05:28:13.867Z,2.26
2023-01-13T05:30:46.151Z,2.26
2023-01-13T05:33:14.924Z,2.28
2023-01-13T05:35:42.621Z,2.29
2023-01-13T05:38:09.675Z,2.30
2023-01-13T05:40:56.301Z,2.29
2023-01-13T05:43:25.009Z,2.29
2023-01-13T05:45:57.745Z,2.30
2023-01-13T05:48:34.714Z,2.33
2023-01-13T05:51:02.352Z,2.32
2023-01-13T05:53:29.423Z,2.34
2023-01-13T05:55:56.386Z,2.34
2023-01-13T05:58:24.754Z,2.35
2023-01-13T06:00:51.546Z,2.34
2023-01-13T06:03:20.213Z,2.33
2023-01-13T06:05:47.687Z,2.29
2023-01-13T06:08:14.664Z,2.26
2023-01-13T06:10:41.542Z,2.21
2023-01-13T06:13:08.288Z,2.16
2023-01-13T06:15:35.100Z,2.12
2023-01-13T06:18:02.450Z,2.05
2023-01-13T06:20:29.178Z,2.00
2023-01-13T06:22:55.862Z,1.93
2023-01-13T06:25:28.835Z,1.86
2023-01-13T06:27:59.492Z,1.79
2023-01-13T06:30:28.035Z,1.74
2023-01-13T06:32:56.112Z,1.71
2023-01-13T06:35:25.489Z,1.65
2023-01-13T06:37:55.514Z,1.62
2023-01-13T06:40:22.625Z,1.57
2023-01-13T06:43:08.295Z,1.51
2023-01-13T06:45:35.382Z,1.44
2023-01-13T06:48:02.206Z,1.39
2023-01-13T06:50:29.224Z,1.33
2023-01-13T06:52:55.923Z,1.28
2023-01-13T06:55:22.772Z,1.25
2023-01-13T06:57:56.594Z,1.23
2023-01-13T07:00:23.992Z,1.22
2023-01-13T07:02:50.903Z,1.19
2023-01-13T07:05:19.003Z,1.18
2023-01-13T07:07:45.882Z,1.17
2023-01-13T07:10:14.239Z,1.16
2023-01-13T07:12:59.596Z,1.16
2023-01-13T07:15:26.873Z,1.15
2023-01-13T07:17:53.899Z,0.94
2023-01-13T07:20:20.756Z,1.18
2023-01-13T07:22:53.848Z,1.19
2023-01-13T07:25:20.768Z,1.24
2023-01-13T07:27:47.420Z,1.29
2023-01-13T07:30:14.339Z,1.36
2023-01-13T07:32:41.056Z,1.45
2023-01-13T07:35:07.939Z,1.57
2023-01-13T07:37:35.568Z,1.75
2023-01-13T07:40:05.131Z,2.01
2023-01-13T07:42:50.344Z,2.35
2023-01-13T07:45:17.261Z,3.29
2023-01-13T07:47:44.002Z,3.87
2023-01-13T07:50:11.052Z,4.23
2023-01-13T07:52:37.819Z,5.03
2023-01-13T07:55:04.663Z,5.82
2023-01-13T07:57:31.465Z,6.60
2023-01-13T07:59:58.466Z,7.35
2023-01-13T08:02:25.467Z,7.91
2023-01-13T08:04:52.389Z,8.00
2023-01-13T08:07:19.219Z,7.79
2023-01-13T08:09:46.140Z,7.66
2023-01-13T08:12:31.610Z,7.49
2023-01-13T08:14:58.521Z,7.37
2023-01-13T08:17:25.342Z,7.26
2023-01-13T08:19:52.756Z,7.05
2023-01-13T08:22:19.529Z,6.83
2023-01-13T08:24:46.439Z,6.56
2023-01-13T08:27:13.223Z,6.33
2023-01-13T08:29:40.007Z,6.11
2023-01-13T08:32:06.879Z,5.93
2023-01-13T08:34:33.701Z,5.77
2023-01-13T08:37:00.494Z,5.55
2023-01-13T08:39:27.250Z,5.38
2023-01-13T08:41:57.091Z,5.23
2023-01-13T08:44:25.494Z,5.18
2023-01-13T08:46:52.269Z,5.21
2023-01-13T08:49:19.178Z,5.19
2023-01-13T08:51:46.072Z,5.19
2023-01-13T08:54:13.006Z,5.17
2023-01-13T08:56:41.117Z,5.25
2023-01-13T08:59:10.314Z,5.32
2023-01-13T09:01:39.592Z,5.39
2023-01-13T09:04:17.599Z,5.49
2023-01-13T09:06:44.907Z,5.58
2023-01-13T09:09:11.849Z,5.66
2023-01-13T09:11:58.984Z,5.70
2023-01-13T09:14:26.721Z,5.73
2023-01-13T09:16:54.185Z,5.76
2023-01-13T09:19:21.247Z,5.76
2023-01-13T09:21:49.339Z,5.73
2023-01-13T09:24:16.291Z,5.70
2023-01-13T09:26:43.118Z,5.68
2023-01-13T09:29:10.022Z,5.65
2023-01-13T09:31:36.812Z,5.65
2023-01-13T09:34:23.552Z,5.70
2023-01-13T09:36:50.471Z,5.68
2023-01-13T09:39:17.867Z,5.61
2023-01-13T09:42:05.201Z,5.57
2023-01-13T09:44:50.240Z,5.46
2023-01-13T09:47:24.052Z,5.35
2023-01-13T09:49:51.284Z,5.33
2023-01-13T09:52:26.593Z,5.23
2023-01-13T09:55:12.104Z,5.23
2023-01-13T09:57:40.099Z,5.25
2023-01-13T10:00:12.274Z,5.27
2023-01-13T10:02:42.029Z,5.11
2023-01-13T10:05:14.501Z,5.40
2023-01-13T10:07:45.035Z,5.51
2023-01-13T10:10:16.291Z,5.64
2023-01-13T10:13:02.331Z,5.76
2023-01-13T10:15:29.421Z,5.88
2023-01-13T10:17:56.236Z,5.98
2023-01-13T10:20:26.612Z,6.10
2023-01-13T10:23:00.229Z,6.21
2023-01-13T10:25:45.589Z,6.29
2023-01-13T10:28:13.801Z,6.39
2023-01-13T10:30:42.463Z,6.46
2023-01-13T10:33:20.875Z,6.53
2023-01-13T10:35:50.001Z,6.61
2023-01-13T10:38:22.582Z,6.57
2023-01-13T10:40:57.345Z,6.71
2023-01-13T10:43:24.593Z,6.78
2023-01-13T10:45:52.970Z,6.86
2023-01-13T10:48:19.755Z,6.95
2023-01-13T10:50:48.790Z,7.00
2023-01-13T10:53:20.189Z,6.99
2023-01-13T10:55:58.898Z,7.22
2023-01-13T10:58:25.922Z,7.31
2023-01-13T11:01:00.151Z,7.52
2023-01-13T11:03:34.694Z,7.76
2023-01-13T11:06:02.375Z,7.94
2023-01-13T11:08:30.373Z,8.08
2023-01-13T11:10:58.396Z,8.21
2023-01-13T11:13:57.520Z,8.32
2023-01-13T11:16:25.548Z,8.40
2023-01-13T11:19:12.311Z,8.45
2023-01-13T11:21:42.036Z,8.51
2023-01-13T11:24:08.812Z,8.51
2023-01-13T11:26:45.185Z,8.48
2023-01-13T11:29:18.597Z,8.52
2023-01-13T11:31:52.272Z,8.56
2023-01-13T11:34:24.951Z,8.61
2023-01-13T11:36:53.279Z,8.67
2023-01-13T11:39:29.171Z,8.69
2023-01-13T11:42:22.041Z,8.70
2023-01-13T11:45:09.168Z,8.71
2023-01-13T11:47:37.601Z,8.71
2023-01-13T11:50:16.795Z,8.74
2023-01-13T11:52:55.648Z,8.72
2023-01-13T11:55:52.113Z,8.62
2023-01-13T11:58:19.213Z,8.51
2023-01-13T12:01:01.413Z,8.47
2023-01-13T12:03:49.245Z,8.39
2023-01-13T12:06:29.012Z,8.34
2023-01-13T12:09:11.154Z,8.36
2023-01-13T12:12:16.919Z,8.42
2023-01-13T12:15:06.050Z,8.48
2023-01-13T12:18:00.580Z,8.51
2023-01-13T12:20:51.075Z,8.55
2023-01-13T12:23:42.219Z,8.56
2023-01-13T12:26:15.752Z,8.59
2023-01-13T12:28:49.506Z,8.63
2023-01-13T12:31:22.453Z,8.68
2023-01-13T12:34:09.084Z,8.68
2023-01-13T12:37:04.561Z,8.70
2023-01-13T12:40:07.060Z,8.71
2023-01-13T12:43:04.157Z,8.67
2023-01-13T12:45:33.225Z,8.65
2023-01-13T12:48:00.421Z,8.62
2023-01-13T12:50:30.365Z,8.60
2023-01-13T12:53:01.873Z,8.60
2023-01-13T12:55:40.757Z,8.60
2023-01-13T12:58:18.381Z,8.61
2023-01-13T13:00:48.309Z,8.63
2023-01-13T13:03:29.768Z,8.65
2023-01-13T13:06:17.625Z,8.68
2023-01-13T13:09:04.193Z,8.70
2023-01-13T13:11:58.662Z,8.69
2023-01-13T13:14:40.600Z,8.69
2023-01-13T13:17:26.072Z,8.68
2023-01-13T13:19:57.482Z,8.68
2023-01-13T13:22:45.486Z,8.67
2023-01-13T13:25:25.019Z,8.68
2023-01-13T13:28:11.477Z,8.66
2023-01-13T13:30:43.753Z,8.61
2023-01-13T13:33:29.856Z,8.59
2023-01-13T13:36:07.139Z,8.55
2023-01-13T13:39:27.237Z,8.50
2023-01-13T13:42:27.200Z,8.40
2023-01-13T13:45:15.124Z,8.38
2023-01-13T13:47:45.226Z,8.35
2023-01-13T13:50:16.994Z,8.36
2023-01-13T13:52:54.765Z,8.37
2023-01-13T13:55:29.547Z,8.37
2023-01-13T13:58:06.590Z,8.34
2023-01-13T14:00:44.034Z,8.32
2023-01-13T14:03:34.475Z,8.30
2023-01-13T14:06:08.333Z,8.29
2023-01-13T14:08:40.278Z,8.29
2023-01-13T14:11:29.058Z,8.26
2023-01-13T14:14:11.888Z,8.23
2023-01-13T14:16:41.276Z,8.15
2023-01-13T14:19:31.333Z,8.11
2023-01-13T14:22:01.765Z,8.10
2023-01-13T14:24:30.468Z,8.08
2023-01-13T14:27:09.561Z,8.04
2023-01-13T14:29:40.141Z,8.01
2023-01-13T14:32:07.950Z,7.98
2023-01-13T14:34:36.587Z,7.92
2023-01-13T14:37:21.596Z,7.87
2023-01-13T14:39:49.686Z,7.83
2023-01-13T14:42:17.387Z,7.84
2023-01-13T14:44:46.570Z,7.84
2023-01-13T14:47:36.941Z,7.86
2023-01-13T14:50:22.453Z,7.87
2023-01-13T14:53:00.299Z,7.87
2023-01-13T14:55:34.106Z,7.84
2023-01-13T14:58:17.120Z,7.81
2023-01-13T15:00:45.434Z,7.77
2023-01-13T15:03:22.701Z,7.72
2023-01-13T15:05:55.985Z,7.71
2023-01-13T15:08:27.543Z,7.72
2023-01-13T15:11:02.433Z,7.72
2023-01-13T15:13:36.500Z,7.72
2023-01-13T15:16:15.597Z,7.71
2023-01-13T15:18:43.805Z,7.69
2023-01-13T15:21:12.643Z,7.67
2023-01-13T15:23:41.310Z,7.64
2023-01-13T15:26:27.319Z,7.61
2023-01-13T15:29:01.431Z,7.59
2023-01-13T15:31:29.587Z,7.55
2023-01-13T15:33:56.591Z,7.52
2023-01-13T15:36:36.252Z,7.50
2023-01-13T15:39:04.743Z,7.46
2023-01-13T15:41:56.410Z,7.44
2023-01-13T15:44:42.493Z,7.39
2023-01-13T15:47:20.301Z,7.35
2023-01-13T15:49:48.216Z,7.31
2023-01-13T15:52:21.697Z,7.30
2023-01-13T15:54:52.664Z,7.28
2023-01-13T15:57:32.316Z,7.24
2023-01-13T16:00:00.926Z,7.19
2023-01-13T16:02:32.388Z,7.14
2023-01-13T16:04:59.484Z,7.11
2023-01-13T16:07:27.520Z,7.09
2023-01-13T16:09:56.797Z,7.06
2023-01-13T16:12:25.590Z,7.04
2023-01-13T16:14:55.958Z,7.02
2023-01-13T16:17:27.058Z,7.02
2023-01-13T16:19:54.716Z,6.99
2023-01-13T16:22:25.236Z,6.97
2023-01-13T16:24:52.539Z,6.94
2023-01-13T16:27:27.490Z,6.91
2023-01-13T16:29:54.538Z,6.87
2023-01-13T16:32:21.373Z,6.83
2023-01-13T16:34:49.775Z,6.80
2023-01-13T16:37:27.614Z,6.76
2023-01-13T16:39:55.498Z,6.72
2023-01-13T16:42:22.791Z,6.68
2023-01-13T16:44:55.669Z,6.65
2023-01-13T16:47:27.505Z,6.62
2023-01-13T16:49:54.554Z,6.59
2023-01-13T16:52:21.600Z,6.58
2023-01-13T16:54:50.612Z,6.56
2023-01-13T16:57:19.854Z,6.55
2023-01-13T16:59:48.038Z,6.52
2023-01-13T17:02:25.774Z,6.49
2023-01-13T17:04:56.283Z,6.46
2023-01-13T17:07:26.264Z,6.44
2023-01-13T17:09:57.732Z,6.42
2023-01-13T17:12:28.373Z,6.42
2023-01-13T17:14:58.326Z,6.42
2023-01-13T17:17:35.532Z,6.39
2023-01-13T17:20:06.244Z,6.35
2023-01-13T17:22:33.984Z,6.33
2023-01-13T17:25:04.309Z,6.27
2023-01-13T17:27:33.705Z,6.20
2023-01-13T17:30:04.061Z,6.11
2023-01-13T17:32:34.412Z,6.02
2023-01-13T17:35:10.785Z,5.97
2023-01-13T17:37:42.573Z,5.90
2023-01-13T17:40:12.337Z,5.82
2023-01-13T17:42:41.835Z,5.75
2023-01-13T17:45:20.752Z,5.70
2023-01-13T17:47:49.954Z,5.63
2023-01-13T17:50:21.153Z,5.55
2023-01-13T17:52:51.303Z,5.49
2023-01-13T17:55:18.714Z,5.44
2023-01-13T17:57:46.727Z,5.37
2023-01-13T18:00:16.287Z,5.35
2023-01-13T18:02:44.490Z,5.33
2023-01-13T18:05:15.457Z,5.33
2023-01-13T18:07:43.356Z,5.29
2023-01-13T18:10:20.785Z,5.27
2023-01-13T18:12:48.632Z,5.25
2023-01-13T18:15:18.367Z,5.22
2023-01-13T18:17:47.349Z,5.21
2023-01-13T18:20:34.445Z,5.16
2023-01-13T18:23:22.621Z,5.11
2023-01-13T18:26:10.797Z,5.05
2023-01-13T18:28:42.512Z,5.00
2023-01-13T18:31:09.772Z,4.96
2023-01-13T18:33:39.704Z,4.90
2023-01-13T18:36:10.493Z,4.87
2023-01-13T18:38:41.294Z,4.81
2023-01-13T18:41:40.065Z,4.75
2023-01-13T18:44:10.993Z,4.64
2023-01-13T18:46:39.942Z,4.55
2023-01-13T18:49:06.795Z,4.46
2023-01-13T18:51:36.744Z,4.40
2023-01-13T18:54:07.009Z,4.32
2023-01-13T18:56:38.777Z,4.23
2023-01-13T18:59:07.950Z,4.16
2023-01-13T19:01:38.430Z,4.08
2023-01-13T19:04:11.584Z,4.00
2023-01-13T19:06:40.364Z,3.94
2023-01-13T19:09:15.631Z,3.90
2023-01-13T19:11:46.664Z,3.83
2023-01-13T19:14:34.397Z,3.76
2023-01-13T19:17:07.108Z,3.74
2023-01-13T19:19:40.762Z,3.73
2023-01-13T19:22:07.882Z,3.70
2023-01-13T19:24:38.248Z,3.68
2023-01-13T19:27:08.108Z,3.65
2023-01-13T19:29:38.565Z,3.65
2023-01-13T19:32:18.546Z,3.63
2023-01-13T19:34:47.852Z,3.61
2023-01-13T19:37:15.728Z,3.61
2023-01-13T19:39:44.115Z,3.60
2023-01-13T19:42:33.887Z,3.60
2023-01-13T19:45:35.625Z,3.63
2023-01-13T19:48:12.567Z,3.66
2023-01-13T19:50:40.697Z,3.70
2023-01-13T19:53:08.135Z,3.73
2023-01-13T19:55:38.279Z,3.78
2023-01-13T19:58:08.809Z,3.83
2023-01-13T20:00:37.707Z,3.88
2023-01-13T20:03:08.790Z,3.95
2023-01-13T20:05:37.059Z,4.02
2023-01-13T20:08:04.832Z,4.11
2023-01-13T20:10:43.633Z,4.20
2023-01-13T20:13:12.339Z,4.29
2023-01-13T20:15:40.125Z,4.34
2023-01-13T20:18:18.430Z,4.37
2023-01-13T20:20:46.047Z,4.41
2023-01-13T20:23:14.011Z,4.45
2023-01-13T20:25:44.500Z,4.46
2023-01-13T20:28:11.357Z,4.49
2023-01-13T20:30:39.588Z,4.52
2023-01-13T20:33:06.423Z,4.53
2023-01-13T20:35:36.661Z,4.57
2023-01-13T20:38:07.551Z,4.61
2023-01-13T20:40:37.319Z,4.63
2023-01-13T20:43:08.147Z,4.66
2023-01-13T20:45:35.466Z,4.69
2023-01-13T20:48:04.996Z,4.73
2023-01-13T20:50:35.183Z,4.75
2023-01-13T20:53:05.642Z,4.78
2023-01-13T20:55:32.615Z,4.80
2023-01-13T20:57:59.922Z,4.82
2023-01-13T21:00:34.713Z,4.85
2023-01-13T21:03:02.760Z,4.86
2023-01-13T21:05:31.522Z,4.87
2023-01-13T21:07:58.432Z,4.89
2023-01-13T21:10:30.484Z,4.89
2023-01-13T21:13:19.989Z,4.92
2023-01-13T21:15:49.331Z,4.92
2023-01-13T21:18:39.738Z,4.94
2023-01-13T21:21:18.978Z,4.96
2023-01-13T21:23:50.379Z,4.97
2023-01-13T21:26:24.371Z,4.98
2023-01-13T21:28:56.186Z,5.00
2023-01-13T21:31:26.891Z,5.00
2023-01-13T21:33:55.445Z,5.03
2023-01-13T21:36:24.732Z,5.04
2023-01-13T21:38:57.344Z,5.07
2023-01-13T21:41:44.717Z,5.07
2023-01-13T21:44:35.546Z,5.08
2023-01-13T21:47:23.835Z,5.09
2023-01-13T21:49:53.871Z,5.10
2023-01-13T21:52:22.779Z,5.13
2023-01-13T21:55:08.734Z,5.14
2023-01-13T21:57:45.874Z,5.13
2023-01-13T22:00:14.835Z,5.08
2023-01-13T22:02:44.916Z,5.05
2023-01-13T22:05:13.926Z,5.07
2023-01-13T22:07:41.680Z,5.10
2023-01-13T22:10:14.736Z,5.12
2023-01-13T22:12:43.597Z,5.13
2023-01-13T22:15:17.681Z,5.10
2023-01-13T22:17:48.889Z,5.05
2023-01-13T22:20:17.804Z,5.04
2023-01-13T22:22:48.689Z,5.10
2023-01-13T22:25:20.283Z,5.14
2023-01-13T22:27:49.703Z,5.16
2023-01-13T22:30:23.148Z,5.15
2023-01-13T22:32:53.864Z,5.15
2023-01-13T22:35:23.355Z,5.16
2023-01-13T22:38:19.947Z,5.18
2023-01-13T22:41:16.828Z,5.19
2023-01-13T22:44:14.342Z,5.22
2023-01-13T22:46:44.218Z,5.27
2023-01-13T22:49:33.110Z,5.23
2023-01-13T22:52:01.541Z,5.23
2023-01-13T22:54:30.289Z,5.25
2023-01-13T22:57:03.763Z,5.28
2023-01-13T22:59:34.159Z,5.23
2023-01-13T23:02:04.654Z,5.22
2023-01-13T23:04:55.116Z,5.29
2023-01-13T23:07:22.141Z,5.34
2023-01-13T23:09:50.328Z,5.35
2023-01-13T23:12:17.121Z,5.38
2023-01-13T23:14:45.061Z,5.43
2023-01-13T23:17:14.208Z,5.47
2023-01-13T23:19:43.453Z,5.52
2023-01-13T23:22:13.857Z,5.55
2023-01-13T23:24:41.161Z,5.62
2023-01-13T23:27:08.174Z,5.67
2023-01-13T23:29:36.511Z,5.71
2023-01-13T23:32:06.340Z,5.74
2023-01-13T23:34:34.564Z,5.75
2023-01-13T23:37:04.504Z,5.75
2023-01-13T23:39:35.069Z,5.78
2023-01-13T23:42:05.038Z,5.78
2023-01-13T23:44:41.239Z,5.77
2023-01-13T23:47:10.237Z,5.74
2023-01-13T23:49:40.919Z,5.69
2023-01-13T23:52:08.899Z,5.70
2023-01-13T23:54:41.294Z,5.72
2023-01-13T23:57:12.077Z,5.69
2023-01-13T23:59:40.304Z,5.70
